Latest Weather Observations for Curtin

IDW60801

Issued at 4:02 pm WST Friday 27 May 2016 (issued every 30 minutes, with the page automatically refreshed every 10 minutes)

About weather observations | Map of weather stations | Latest weather observations for WA | Other Formats
Station Details ID: 003080 Name: CURTIN AERO Lat: -17.58 Lon: 123.83 Height: 77.5 m
Data from the previous 72 hours. | See also: Recent months at Curtin
Date/Time
WST
Temp
°C
App
Temp
°C
Dew
Point
Rel
Hum
%
Delta-T
°C
Wind Press
QNH
hPa
Press
MSL
hPa
Rain
since 9 am
mm
Dir
 
Spd
km/h
Gust
km/h
Spd
kts
Gust
kts
27/04:00pm 33.0 31.4 15.0 33 11.2 S 17 20 9 11 1011.6 1011.2 0.0
27/03:30pm 33.5 32.7 15.0 32 11.5 SSE 13 19 7 10 1011.3 1010.9 0.0
27/03:00pm 33.7 31.6 14.7 32 11.8 S 19 28 10 15 1011.4 1011.0 0.0
27/02:30pm 33.8 32.9 14.8 32 11.8 SSE 13 20 7 11 1011.4 1011.0 0.0
27/02:00pm 33.9 32.3 14.9 32 11.8 S 17 24 9 13 1011.5 1011.1 0.0
27/01:30pm 34.0 33.2 15.0 32 11.8 ESE 13 20 7 11 1011.7 1011.3 0.0
27/01:00pm 33.7 31.8 15.2 33 11.5 SE 19 24 10 13 1012.0 1011.6 0.0
27/12:30pm 33.5 32.1 15.5 34 11.3 SSE 17 26 9 14 1012.5 1012.1 0.0
27/12:00pm 33.4 32.5 14.9 32 11.5 ESE 13 24 7 13 1013.0 1012.6 0.0
27/11:30am 33.3 31.6 14.8 32 11.4 SSE 17 24 9 13 1013.4 1013.0 0.0
27/11:00am 33.2 31.9 14.8 33 11.4 SE 15 30 8 16 1013.8 1013.4 0.0
27/10:30am 32.3 31.4 14.9 35 10.7 SE 13 20 7 11 1014.3 1013.9 0.0
27/10:00am 32.5 31.8 15.5 36 10.6 ESE 13 22 7 12 1014.7 1014.2 0.0
27/09:30am 31.5 31.0 15.9 39 9.7 SSE 13 19 7 10 1014.9 1014.4 0.0
27/09:00am 30.7 30.0 15.5 39 9.4 SE 13 20 7 11 1015.0 1014.5 0.0
27/08:30am 30.0 30.3 16.1 43 8.7 SE 9 15 5 8 1014.9 1014.4 0.0
27/08:00am 28.0 28.1 16.6 50 7.1 SE 11 17 6 9 1014.5 1014.1 0.0
27/07:30am 26.1 25.9 16.6 55 5.9 SSE 13 15 7 8 1014.5 1014.1 0.0
27/07:00am 24.4 24.3 16.9 63 4.6 SSE 13 15 7 8 1014.1 1013.7 0.0
27/06:30am 22.8 22.9 16.6 68 3.8 SSE 11 11 6 6 1013.7 1013.3 0.0
27/06:00am 22.1 22.7 16.8 72 3.2 SSE 9 11 5 6 1013.4 1013.0 0.0
27/05:30am 21.7 22.0 17.1 75 2.8 S 11 13 6 7 1013.5 1013.1 0.0
27/05:00am 22.2 23.3 17.1 73 3.1 S 7 9 4 5 1013.3 1012.9 0.0
27/04:30am 22.4 22.4 17.1 72 3.3 S 13 13 7 7 1013.2 1012.8 0.0
27/04:00am 21.5 21.9 18.1 81 2.1 S 13 13 7 7 1013.2 1012.8 0.0
27/03:30am 20.6 22.1 18.0 85 1.6 SW 7 9 4 5 1013.3 1012.9 0.0
27/03:00am 21.3 22.8 17.7 80 2.2 SW 6 9 3 5 1013.4 1013.0 0.0
27/02:30am 22.7 23.8 18.0 75 2.9 SW 9 11 5 6 1013.6 1013.2 0.0
27/02:00am 23.2 23.9 17.9 72 3.3 SSW 11 11 6 6 1013.7 1013.3 0.0
27/01:30am 23.5 24.6 17.9 71 3.5 SSW 9 11 5 6 1013.7 1013.3 0.0
27/01:00am 23.8 24.4 17.8 69 3.8 S 11 13 6 7 1013.9 1013.5 0.0
27/12:30am 24.3 24.9 17.8 67 4.1 SSW 11 13 6 7 1013.9 1013.5 0.0
27/12:00am 24.6 25.0 18.1 67 4.1 SSW 13 15 7 8 1013.8 1013.4 0.0
 
Date/Time
WST
Temp
°C
App
Temp
°C
Dew
Point
Rel
Hum
%
Delta-T
°C
Wind Press
QNH
hPa
Press
MSL
hPa
Rain
since 9 am
mm
Dir
 
Spd
km/h
Gust
km/h
Spd
kts
Gust
kts
26/11:30pm 22.2 23.9 18.6 80 2.3 SSW 7 9 4 5 1013.5 1013.1 0.0
26/11:00pm 22.3 25.2 18.1 77 2.6 CALM 0 0 0 0 1013.5 1013.1 0.0
26/10:30pm 22.8 25.7 18.3 76 2.8 CALM 0 0 0 0 1013.6 1013.2 0.0
26/10:00pm 24.3 26.5 19.6 75 3.0 SW 7 9 4 5 1013.7 1013.3 0.0
26/09:30pm 23.9 25.9 18.8 73 3.2 SSW 6 7 3 4 1013.8 1013.4 0.0
26/09:00pm 25.0 26.5 18.9 69 3.9 SW 9 11 5 6 1013.9 1013.5 0.0
26/08:30pm 23.8 25.6 18.2 71 3.5 WSW 6 9 3 5 1013.8 1013.4 0.0
26/08:00pm 23.9 26.1 17.4 67 4.0 WSW 2 7 1 4 1013.6 1013.2 0.0
26/07:30pm 24.1 26.5 16.9 64 4.4 CALM 0 0 0 0 1013.4 1013.0 0.0
26/07:00pm 25.2 27.0 18.2 65 4.4 NW 6 7 3 4 1013.2 1012.8 0.0
26/06:30pm 25.4 26.4 16.8 59 5.3 NNE 7 9 4 5 1012.9 1012.5 0.0
26/06:00pm 26.6 27.3 16.2 52 6.4 ENE 7 11 4 6 1012.6 1012.2 0.0
26/05:30pm 29.0 29.9 16.2 46 8.0 N 6 6 3 3 1012.4 1012.0 0.0
26/05:00pm 31.4 32.1 16.2 40 9.5 NNW 7 11 4 6 1012.1 1011.7 0.0
26/04:30pm 32.8 33.5 16.2 37 10.5 NW 7 9 4 5 1012.0 1011.6 0.0
26/04:00pm 32.5 32.5 16.3 37 10.2 NW 11 13 6 7 1011.8 1011.4 0.0
26/03:30pm 33.6 33.9 16.0 34 11.1 NNW 9 17 5 9 1011.6 1011.2 0.0
26/03:00pm 34.0 35.8 16.4 35 11.2 NNE 2 7 1 4 1011.5 1011.1 0.0
26/02:30pm 33.9 34.7 15.8 33 11.4 W 6 9 3 5 1011.7 1011.3 0.0
26/02:00pm 33.5 33.4 15.9 34 11.1 NNE 11 19 6 10 1011.9 1011.5 0.0
26/01:30pm 33.8 34.5 17.1 37 10.7 NW 9 13 5 7 1012.2 1011.8 0.0
26/01:00pm 33.4 34.0 15.8 34 11.1 W 7 11 4 6 1012.4 1012.0 0.0
26/12:30pm 32.4 32.3 15.0 35 10.8 S 9 13 5 7 1012.8 1012.4 0.0
26/12:00pm 32.0 31.6 15.1 36 10.5 S 11 15 6 8 1013.3 1012.9 0.0
26/11:30am 32.1 31.1 14.7 35 10.7 S 13 19 7 10 1013.7 1013.3 0.0
26/11:00am 31.9 31.3 14.5 34 10.7 SSW 11 17 6 9 1014.2 1013.8 0.0
26/10:30am 31.2 30.0 13.9 35 10.5 S 13 19 7 10 1014.8 1014.3 0.0
26/10:00am 30.7 29.5 13.9 36 10.2 S 13 19 7 10 1015.1 1014.6 0.0
26/09:30am 29.9 29.1 15.2 41 9.0 S 13 17 7 9 1015.5 1015.0 0.0
26/09:00am 28.3 28.1 15.6 46 7.8 S 11 15 6 8 1015.4 1014.9 0.0
26/08:30am 27.4 27.6 16.7 52 6.7 S 11 17 6 9 1015.2 1014.7 0.0
26/08:00am 26.0 25.7 16.5 55 5.9 SSE 13 17 7 9 1014.9 1014.4 0.0
26/07:30am 24.8 24.8 17.3 63 4.7 SSE 13 17 7 9 1014.4 1014.0 0.0
26/07:00am 23.6 23.5 17.8 70 3.6 SSE 15 17 8 9 1014.0 1013.6 0.0
26/06:30am 21.8 23.6 18.8 83 1.9 SSE 7 9 4 5 1013.8 1013.4 0.0
26/06:00am 21.4 22.5 18.8 85 1.6 S 11 11 6 6 1013.4 1013.0 0.0
26/05:30am 21.3 22.8 18.9 86 1.5 S 9 11 5 6 1013.3 1012.9 0.0
26/05:00am 19.9 21.3 18.6 92 0.8 S 9 9 5 5 1013.0 1012.6 0.0
26/04:30am 19.6 21.3 18.1 91 0.9 SSW 6 7 3 4 1012.8 1012.4 0.0
26/04:00am 19.8 21.6 18.3 91 0.9 SSW 6 7 3 4 1012.5 1012.1 0.0
26/03:30am 20.0 21.7 18.0 88 1.2 SSW 6 6 3 3 1012.3 1011.9 0.0
26/03:00am 20.4 22.0 18.2 87 1.4 SSW 7 7 4 4 1012.4 1012.0 0.0
26/02:30am 21.3 23.1 18.7 85 1.6 SW 7 7 4 4 1012.4 1012.0 0.0
26/02:00am 21.1 22.7 18.3 84 1.8 SW 7 7 4 4 1012.5 1012.1 0.0
26/01:30am 21.6 23.0 17.8 79 2.4 SW 7 7 4 4 1012.5 1012.1 0.0
26/01:00am 23.4 24.4 17.8 71 3.5 SSW 9 9 5 5 1012.6 1012.2 0.0
26/12:30am 23.8 24.4 17.8 69 3.8 SW 11 13 6 7 1012.7 1012.3 0.0
26/12:00am 24.1 24.7 17.8 68 3.9 SW 11 13 6 7 1012.8 1012.4 0.0
 
Date/Time
WST
Temp
°C
App
Temp
°C
Dew
Point
Rel
Hum
%
Delta-T
°C
Wind Press
QNH
hPa
Press
MSL
hPa
Rain
since 9 am
mm
Dir
 
Spd
km/h
Gust
km/h
Spd
kts
Gust
kts
25/11:30pm 24.3 24.9 17.8 67 4.1 SW 11 15 6 8 1012.9 1012.5 0.0
25/11:00pm 24.3 25.6 18.5 70 3.7 WSW 9 11 5 6 1012.9 1012.5 0.0
25/10:30pm 23.3 25.1 18.8 76 2.9 WSW 7 7 4 4 1013.0 1012.6 0.0
25/10:00pm 23.5 25.4 19.0 76 2.9 WSW 7 11 4 6 1013.0 1012.6 0.0
25/09:30pm 23.8 25.6 18.4 72 3.4 SSW 6 7 3 4 1012.9 1012.5 0.0
25/09:00pm 24.6 26.8 19.7 74 3.2 S 7 9 4 5 1012.7 1012.3 0.0
25/08:30pm 23.2 25.5 18.5 75 3.0 WSW 4 6 2 3 1012.7 1012.3 0.0
25/08:00pm 23.5 25.6 19.0 76 2.9 WNW 6 7 3 4 1012.5 1012.1 0.0
25/07:30pm 23.9 25.5 17.9 69 3.8 WNW 6 6 3 3 1012.2 1011.8 0.0
25/07:00pm 25.1 27.1 18.8 68 4.0 NW 6 7 3 4 1012.0 1011.6 0.0
25/06:30pm 26.4 28.2 18.3 61 5.2 NW 6 7 3 4 1011.7 1011.3 0.0
25/06:00pm 28.3 29.7 17.8 53 6.7 NW 7 9 4 5 1011.4 1011.0 0.0
25/05:30pm 29.4 30.5 17.2 47 7.7 NW 7 9 4 5 1011.1 1010.7 0.0
25/05:00pm 31.2 32.8 17.9 45 8.6 NNE 6 7 3 4 1010.7 1010.3 0.0
25/04:30pm 32.6 33.6 16.8 38 10.0 ENE 7 13 4 7 1010.5 1010.1 0.0
25/04:00pm 33.3 34.2 16.6 36 10.6 N 7 11 4 6 1010.4 1010.0 0.0
25/03:30pm 33.7 34.8 17.0 37 10.7 WNW 7 9 4 5 1010.2 1009.8 0.0
25/03:00pm 33.3 33.7 16.2 36 10.8 NNE 9 13 5 7 1010.2 1009.8 0.0
25/02:30pm 33.5 33.9 16.4 36 10.8 N 9 15 5 8 1010.1 1009.7 0.0
25/02:00pm 33.5 34.3 15.9 34 11.1 WNW 6 13 3 7 1010.2 1009.8 0.0
25/01:30pm 32.9 32.9 17.1 39 10.1 NE 13 19 7 10 1010.4 1010.0 0.0
25/01:00pm 33.2 34.2 17.8 40 10.0 ESE 9 15 5 8 1010.9 1010.5 0.0
25/12:30pm 32.4 33.3 17.5 41 9.6 E 9 13 5 7 1011.3 1010.9 0.0
25/12:00pm 32.6 33.9 18.4 43 9.2 S 9 15 5 8 1011.8 1011.4 0.0
25/11:30am 32.2 34.0 18.4 44 9.0 SE 6 9 3 5 1012.3 1011.9 0.0
25/11:00am 31.5 32.1 17.8 44 8.8 SE 11 17 6 9 1012.7 1012.3 0.0
25/10:30am 31.5 32.6 18.1 44 8.6 ENE 9 17 5 9 1013.0 1012.6 0.0
25/10:00am 30.6 31.7 18.0 47 8.1 E 9 13 5 7 1013.3 1012.9 0.0
25/09:30am 29.7 31.0 18.5 51 7.2 ENE 9 13 5 7 1013.5 1013.1 0.0
25/09:00am 28.4 30.4 19.9 60 5.6 SE 9 13 5 7 1013.5 1013.1 0.0
25/08:30am 26.8 28.7 19.7 65 4.6 SE 9 13 5 7 1013.5 1013.1 0.0
25/08:00am 25.1 27.0 19.7 72 3.5 SSE 9 11 5 6 1013.4 1013.0 0.0
25/07:30am 23.5 25.3 19.6 79 2.5 SSE 9 11 5 6 1013.2 1012.8 0.0
25/07:00am 21.8 24.4 20.1 90 1.1 SSW 6 7 3 4 1013.0 1012.6 0.0
25/06:30am 20.7 22.9 19.7 94 0.6 S 7 9 4 5 1012.8 1012.4 0.0
25/06:00am 20.4 22.1 19.4 94 0.6 S 9 9 5 5 1012.7 1012.3 0.0
25/05:30am 20.1 21.9 19.6 97 0.3 S 9 9 5 5 1012.4 1012.0 0.0
25/05:00am 18.7 20.2 18.0 96 0.4 S 7 9 4 5 1012.1 1011.7 0.0
25/04:30am 18.8 20.4 17.8 94 0.6 S 6 7 3 4 1012.0 1011.6 0.0
25/04:00am 19.4 21.3 18.6 95 0.5 S 6 6 3 3 1011.7 1011.3 0.0
25/03:30am 19.3 20.9 18.3 94 0.6 SSW 7 7 4 4 1011.6 1011.2 0.0
25/03:00am 19.7 21.5 18.2 91 0.9 SSW 6 7 3 4 1011.5 1011.1 0.0
25/02:30am 20.7 22.7 19.2 91 0.9 SSW 7 7 4 4 1011.6 1011.2 0.0
25/02:00am 20.3 22.2 19.0 92 0.8 SW 7 9 4 5 1011.7 1011.3 0.0
25/01:30am 20.2 22.1 18.5 90 1.1 SSW 6 7 3 4 1011.8 1011.4 0.0
25/01:00am 20.3 22.1 18.8 91 0.9 SSW 7 9 4 5 1012.0 1011.6 0.0
25/12:30am 19.3 21.2 17.6 90 1.0 W 4 7 2 4 1012.1 1011.7 0.0
25/12:00am 19.6 20.9 17.2 86 1.5 W 6 6 3 3 1012.1 1011.7 0.0
 
Date/Time
WST
Temp
°C
App
Temp
°C
Dew
Point
Rel
Hum
%
Delta-T
°C
Wind Press
QNH
hPa
Press
MSL
hPa
Rain
since 9 am
mm
Dir
 
Spd
km/h
Gust
km/h
Spd
kts
Gust
kts
24/11:30pm 20.3 21.9 17.9 86 1.5 NNW 6 9 3 5 1012.2 1011.8 0.0
24/11:00pm 20.9 22.6 18.1 84 1.7 WSW 6 7 3 4 1012.2 1011.8 0.0
24/10:30pm 21.7 23.7 18.7 83 1.9 SW 6 7 3 4 1012.3 1011.9 0.0
24/10:00pm 22.3 24.0 18.1 77 2.6 SSW 6 7 3 4 1012.5 1012.1 0.0
24/09:30pm 23.3 25.1 18.8 76 2.9 SSW 7 9 4 5 1012.8 1012.4 0.0
24/09:00pm 23.1 25.3 19.5 80 2.3 SSW 7 9 4 5 1012.9 1012.5 0.0
24/08:30pm 22.9 24.9 19.1 79 2.4 S 7 7 4 4 1012.8 1012.4 0.0
24/08:00pm 22.7 24.6 18.5 77 2.6 S 6 7 3 4 1012.7 1012.3 0.0
24/07:30pm 23.1 24.9 18.2 74 3.1 S 6 6 3 3 1012.4 1012.0 0.0
24/07:00pm 23.6 25.3 18.0 71 3.5 S 6 6 3 3 1012.1 1011.7 0.0
24/06:30pm 24.4 26.1 18.1 68 4.0 W 6 7 3 4 1011.8 1011.4 0.0
24/06:00pm 26.5 28.3 18.4 61 5.2 W 6 7 3 4 1011.5 1011.1 0.0
24/05:30pm 28.4 29.7 17.6 52 6.8 WNW 7 11 4 6 1011.4 1011.0 0.0
24/05:00pm 30.3 31.1 17.4 46 8.2 W 9 13 5 7 1011.2 1010.8 0.0
24/04:30pm 31.8 33.0 17.3 42 9.3 NW 7 11 4 6 1011.0 1010.6 0.0

Other Formats:

Comma delimited format used in spreadsheet applications
http://www.bom.gov.au/fwo/IDW60801/IDW60801.94204.axf

JavaScript Object Notation format (JSON) in row-major order
http://www.bom.gov.au/fwo/IDW60801/IDW60801.94204.json